createdAt,value
2022-10-10T00:02:08.979Z,77.47
2022-10-10T00:04:35.283Z,77.38
2022-10-10T00:07:01.566Z,77.20
2022-10-10T00:09:27.855Z,76.94
2022-10-10T00:11:54.126Z,77.18
2022-10-10T00:14:20.384Z,77.14
2022-10-10T00:16:46.643Z,76.38
2022-10-10T00:19:12.941Z,76.88
2022-10-10T00:21:39.206Z,77.00
2022-10-10T00:24:05.474Z,76.74
2022-10-10T00:26:31.724Z,76.40
2022-10-10T00:28:57.978Z,75.55
2022-10-10T00:31:24.363Z,75.62
2022-10-10T00:33:50.619Z,75.85
2022-10-10T00:36:17.018Z,75.29
2022-10-10T00:38:43.279Z,75.12
2022-10-10T00:41:09.536Z,75.28
2022-10-10T00:43:35.794Z,75.11
2022-10-10T00:46:02.107Z,74.86
2022-10-10T00:48:28.369Z,75.02
2022-10-10T00:50:54.648Z,74.90
2022-10-10T00:53:20.929Z,74.89
2022-10-10T00:55:47.691Z,74.46
2022-10-10T00:58:13.964Z,74.47
2022-10-10T01:00:40.267Z,74.40
2022-10-10T01:03:06.575Z,74.68
2022-10-10T01:05:32.834Z,74.37
2022-10-10T01:07:59.085Z,74.68
2022-10-10T01:10:25.391Z,74.59
2022-10-10T01:12:51.896Z,74.49
2022-10-10T01:15:18.486Z,74.25
2022-10-10T01:17:44.762Z,74.90
2022-10-10T01:20:11.034Z,75.16
2022-10-10T01:22:37.281Z,75.05
2022-10-10T01:25:06.815Z,74.69
2022-10-10T01:27:33.102Z,74.43
2022-10-10T01:29:59.384Z,74.16
2022-10-10T01:32:25.630Z,74.27
2022-10-10T01:34:51.905Z,74.64
2022-10-10T01:37:18.176Z,74.78
2022-10-10T01:39:44.448Z,74.77
2022-10-10T01:42:10.770Z,74.56
2022-10-10T01:44:37.154Z,74.17
2022-10-10T01:47:03.434Z,74.60
2022-10-10T01:49:29.701Z,74.25
2022-10-10T01:51:55.954Z,74.02
2022-10-10T01:54:22.207Z,74.86
2022-10-10T01:56:48.451Z,74.36
2022-10-10T01:59:14.711Z,74.48
2022-10-10T02:01:40.965Z,74.18
2022-10-10T02:04:07.241Z,74.58
2022-10-10T02:06:33.497Z,74.72
2022-10-10T02:08:59.803Z,75.11
2022-10-10T02:11:26.060Z,74.82
2022-10-10T02:13:52.339Z,74.76
2022-10-10T02:16:18.808Z,74.07
2022-10-10T02:18:45.802Z,74.42
2022-10-10T02:21:12.056Z,74.62
2022-10-10T02:23:38.298Z,74.05
2022-10-10T02:26:04.555Z,74.70
2022-10-10T02:28:30.859Z,74.62
2022-10-10T02:30:57.198Z,73.95
2022-10-10T02:33:23.451Z,74.34
2022-10-10T02:35:49.702Z,74.86
2022-10-10T02:38:16.023Z,74.58
2022-10-10T02:40:42.292Z,74.54
2022-10-10T02:43:08.601Z,74.56
2022-10-10T02:45:34.887Z,73.85
2022-10-10T02:48:01.136Z,74.03
2022-10-10T02:50:27.377Z,73.64
2022-10-10T02:52:53.869Z,73.83
2022-10-10T02:55:20.259Z,73.69
2022-10-10T02:57:46.517Z,73.76
2022-10-10T03:00:12.762Z,73.75
2022-10-10T03:02:39.051Z,73.86
2022-10-10T03:05:06.030Z,73.61
2022-10-10T03:07:32.391Z,73.19
2022-10-10T03:09:58.652Z,73.14
2022-10-10T03:12:24.901Z,73.26
2022-10-10T03:14:51.152Z,73.30
2022-10-10T03:17:17.406Z,73.02
2022-10-10T03:19:43.683Z,72.73
2022-10-10T03:22:09.946Z,72.83
2022-10-10T03:24:36.209Z,72.83
2022-10-10T03:27:02.473Z,73.11
2022-10-10T03:29:28.754Z,72.56
2022-10-10T03:31:55.038Z,72.29
2022-10-10T03:34:21.299Z,72.98
2022-10-10T03:36:47.548Z,73.01
2022-10-10T03:39:13.799Z,72.92
2022-10-10T03:41:40.064Z,72.29
2022-10-10T03:44:06.340Z,72.71
2022-10-10T03:46:32.597Z,73.21
2022-10-10T03:48:58.866Z,72.99
2022-10-10T03:51:25.161Z,72.82
2022-10-10T03:53:51.465Z,73.00
2022-10-10T03:56:17.726Z,73.01
2022-10-10T03:58:43.995Z,73.33
2022-10-10T04:01:10.332Z,73.04
2022-10-10T04:03:36.665Z,73.23
2022-10-10T04:06:02.940Z,73.33
2022-10-10T04:08:30.507Z,72.79
2022-10-10T04:10:56.815Z,73.19
2022-10-10T04:13:23.104Z,73.16
2022-10-10T04:15:49.367Z,72.96
2022-10-10T04:18:15.640Z,72.79
2022-10-10T04:20:41.883Z,73.02
2022-10-10T04:23:08.141Z,73.16
2022-10-10T04:25:34.422Z,73.02
2022-10-10T04:28:01.410Z,73.31
2022-10-10T04:30:27.736Z,73.32
2022-10-10T04:32:54.091Z,73.08
2022-10-10T04:35:20.392Z,73.19
2022-10-10T04:37:46.693Z,73.42
2022-10-10T04:40:13.112Z,73.25
2022-10-10T04:42:39.481Z,73.21
2022-10-10T04:45:07.198Z,72.92
2022-10-10T04:47:33.473Z,72.95
2022-10-10T04:49:59.752Z,73.15
2022-10-10T04:52:26.015Z,72.82
2022-10-10T04:54:52.284Z,72.76
2022-10-10T04:57:18.579Z,73.14
2022-10-10T04:59:45.082Z,72.75
2022-10-10T05:02:11.360Z,72.64
2022-10-10T05:04:37.657Z,72.89
2022-10-10T05:07:03.905Z,72.69
2022-10-10T05:09:30.171Z,72.74
2022-10-10T05:11:56.421Z,73.03
2022-10-10T05:14:22.796Z,72.72
2022-10-10T05:16:49.034Z,73.00
2022-10-10T05:19:15.308Z,73.11
2022-10-10T05:21:41.589Z,73.52
2022-10-10T05:24:07.983Z,73.15
2022-10-10T05:26:34.319Z,73.05
2022-10-10T05:29:01.594Z,72.93
2022-10-10T05:31:28.658Z,73.01
2022-10-10T05:33:54.920Z,72.92
2022-10-10T05:36:21.208Z,73.17
2022-10-10T05:38:54.314Z,73.01
2022-10-10T05:41:20.588Z,72.74
2022-10-10T05:43:46.886Z,72.88
2022-10-10T05:46:13.177Z,72.78
2022-10-10T05:48:39.591Z,73.01
2022-10-10T05:51:07.319Z,72.63
2022-10-10T05:53:33.579Z,72.50
2022-10-10T05:55:59.832Z,72.68
2022-10-10T05:58:26.126Z,72.64
2022-10-10T06:00:52.471Z,72.34
2022-10-10T06:03:18.806Z,72.73
2022-10-10T06:05:45.066Z,72.33
2022-10-10T06:08:12.400Z,72.29
2022-10-10T06:10:38.892Z,71.97
2022-10-10T06:13:05.138Z,71.56
2022-10-10T06:15:31.382Z,71.98
2022-10-10T06:17:57.630Z,72.07
2022-10-10T06:20:23.915Z,71.51
2022-10-10T06:22:50.394Z,71.02
2022-10-10T06:25:38.264Z,70.97
2022-10-10T06:28:03.080Z,70.50
2022-10-10T06:30:29.604Z,69.77
2022-10-10T06:32:57.592Z,70.04
2022-10-10T06:35:23.928Z,70.23
2022-10-10T06:37:50.189Z,70.10
2022-10-10T06:40:16.482Z,69.86
2022-10-10T06:42:42.740Z,69.72
2022-10-10T06:45:09.009Z,69.55
2022-10-10T06:47:35.349Z,68.86
2022-10-10T06:50:02.335Z,69.49
2022-10-10T06:52:28.611Z,68.63
2022-10-10T06:54:54.911Z,68.58
2022-10-10T06:57:21.193Z,68.11
2022-10-10T06:59:47.452Z,68.28
2022-10-10T07:02:13.694Z,67.92
2022-10-10T07:04:39.935Z,68.28
2022-10-10T07:07:06.186Z,67.95
2022-10-10T07:09:32.443Z,67.95
2022-10-10T07:11:58.694Z,67.81
2022-10-10T07:14:24.938Z,67.77
2022-10-10T07:16:51.207Z,67.55
2022-10-10T07:19:19.015Z,67.44
2022-10-10T07:21:45.285Z,67.39
2022-10-10T07:24:11.544Z,67.05
2022-10-10T07:26:38.255Z,67.19
2022-10-10T07:29:04.519Z,67.22
2022-10-10T07:31:30.779Z,67.62
2022-10-10T07:33:57.041Z,67.32
2022-10-10T07:36:23.339Z,66.91
2022-10-10T07:38:51.872Z,66.79
2022-10-10T07:41:18.152Z,67.06
2022-10-10T07:43:44.404Z,66.21
2022-10-10T07:46:12.286Z,66.49
2022-10-10T07:48:38.700Z,66.30
2022-10-10T07:51:04.978Z,66.47
2022-10-10T07:53:31.226Z,65.91
2022-10-10T07:55:57.486Z,65.53
2022-10-10T07:58:23.736Z,65.27
2022-10-10T08:00:50.005Z,65.82
2022-10-10T08:03:16.265Z,65.71
2022-10-10T08:05:42.673Z,64.96
2022-10-10T08:08:08.954Z,65.46
2022-10-10T08:10:35.263Z,64.60
2022-10-10T08:13:01.511Z,65.03
2022-10-10T08:15:30.198Z,63.82
2022-10-10T08:18:00.011Z,64.22
2022-10-10T08:20:26.287Z,64.21
2022-10-10T08:22:52.778Z,64.10
2022-10-10T08:25:19.212Z,63.73
2022-10-10T08:27:45.537Z,63.69
2022-10-10T08:30:11.811Z,62.96
2022-10-10T08:32:38.087Z,62.93
2022-10-10T08:35:04.334Z,63.06
2022-10-10T08:37:35.252Z,62.58
2022-10-10T08:40:03.605Z,62.66
2022-10-10T08:42:29.864Z,62.06
2022-10-10T08:44:56.107Z,61.75
2022-10-10T08:47:22.368Z,61.28
2022-10-10T08:49:48.617Z,60.83
2022-10-10T08:52:14.916Z,61.02
2022-10-10T08:54:41.166Z,61.25
2022-10-10T08:57:07.446Z,60.82
2022-10-10T08:59:33.712Z,61.02
2022-10-10T09:02:17.930Z,60.75
2022-10-10T09:04:45.340Z,60.53
2022-10-10T09:07:12.126Z,60.36
2022-10-10T09:09:38.378Z,60.47
2022-10-10T09:12:04.627Z,59.99
2022-10-10T09:14:30.870Z,60.82
2022-10-10T09:16:57.142Z,59.98
2022-10-10T09:19:24.631Z,61.25
2022-10-10T09:21:51.148Z,60.07
2022-10-10T09:24:17.462Z,59.58
2022-10-10T09:26:44.260Z,59.06
2022-10-10T09:29:10.530Z,58.62
2022-10-10T09:31:36.792Z,58.60
2022-10-10T09:34:03.060Z,58.04
2022-10-10T09:36:30.248Z,59.72
2022-10-10T09:38:56.532Z,58.93
2022-10-10T09:41:22.814Z,57.31
2022-10-10T09:43:49.142Z,56.79
2022-10-10T09:46:15.409Z,56.30
2022-10-10T09:48:41.669Z,56.51
2022-10-10T09:51:07.920Z,56.05
2022-10-10T09:53:34.175Z,55.67
2022-10-10T09:56:00.439Z,56.29
2022-10-10T09:58:26.756Z,55.51
2022-10-10T10:00:53.775Z,55.58
2022-10-10T10:03:20.092Z,55.42
2022-10-10T10:05:46.451Z,56.23
2022-10-10T10:08:12.712Z,55.90
2022-10-10T10:10:39.068Z,55.75
2022-10-10T10:13:05.892Z,55.49
2022-10-10T10:15:32.146Z,55.16
2022-10-10T10:17:58.461Z,56.43
2022-10-10T10:20:24.719Z,56.17
2022-10-10T10:25:22.158Z,56.29
2022-10-10T10:27:48.498Z,56.27
2022-10-10T10:30:14.806Z,55.88
2022-10-10T10:32:41.097Z,56.17
2022-10-10T10:35:07.723Z,56.51
2022-10-10T10:37:33.983Z,56.66
2022-10-10T10:40:00.240Z,56.14
2022-10-10T10:42:26.646Z,56.70
2022-10-10T10:44:52.908Z,56.97
2022-10-10T10:47:19.154Z,57.21
2022-10-10T10:49:45.404Z,56.84
2022-10-10T10:52:11.670Z,57.32
2022-10-10T10:54:40.268Z,57.24
2022-10-10T10:57:10.897Z,56.51
2022-10-10T11:00:17.112Z,57.75
2022-10-10T11:02:43.618Z,56.78
2022-10-10T11:05:24.798Z,56.54
2022-10-10T11:07:53.413Z,56.88
2022-10-10T11:10:19.660Z,56.91
2022-10-10T11:12:45.924Z,57.07
2022-10-10T11:15:12.193Z,57.02
2022-10-10T11:17:38.457Z,57.27
2022-10-10T11:20:04.719Z,57.63
2022-10-10T11:22:31.007Z,57.46
2022-10-10T11:24:57.272Z,57.68
2022-10-10T11:27:23.523Z,57.97
2022-10-10T11:29:49.789Z,58.16
2022-10-10T11:32:16.111Z,57.66
2022-10-10T11:34:42.400Z,57.92
2022-10-10T11:37:08.659Z,58.18
2022-10-10T11:39:35.056Z,58.28
2022-10-10T11:42:02.350Z,58.28
2022-10-10T11:44:28.594Z,58.13
2022-10-10T11:46:54.879Z,58.23
2022-10-10T11:49:21.138Z,58.72
2022-10-10T11:51:47.400Z,58.91
2022-10-10T11:54:13.656Z,58.43
2022-10-10T11:56:40.121Z,58.41
2022-10-10T11:59:06.420Z,58.46
2022-10-10T12:01:32.680Z,57.99
2022-10-10T12:03:58.987Z,58.20
2022-10-10T12:06:25.324Z,58.61
2022-10-10T12:08:51.614Z,58.30
2022-10-10T12:11:17.926Z,58.30
2022-10-10T12:13:44.231Z,57.88
2022-10-10T12:16:10.516Z,57.88
2022-10-10T12:18:36.781Z,58.08
2022-10-10T12:21:03.177Z,58.26
2022-10-10T12:23:29.428Z,57.80
2022-10-10T12:25:55.736Z,57.09
2022-10-10T12:28:22.099Z,56.89
2022-10-10T12:30:48.394Z,57.03
2022-10-10T12:33:14.638Z,56.76
2022-10-10T12:35:40.951Z,56.50
2022-10-10T12:38:07.298Z,56.03
2022-10-10T12:40:33.578Z,57.01
2022-10-10T12:42:59.826Z,56.67
2022-10-10T12:45:26.124Z,56.19
2022-10-10T12:48:05.025Z,55.97
2022-10-10T12:50:34.871Z,56.73
2022-10-10T12:53:01.735Z,56.45
2022-10-10T12:55:28.054Z,57.21
2022-10-10T12:57:54.535Z,57.91
2022-10-10T13:00:20.799Z,57.88
2022-10-10T13:02:47.060Z,57.88
2022-10-10T13:05:13.405Z,57.75
2022-10-10T13:07:39.846Z,57.93
2022-10-10T13:10:06.106Z,57.83
2022-10-10T13:12:32.577Z,57.33
2022-10-10T13:14:58.836Z,57.65
2022-10-10T13:17:25.120Z,57.88
2022-10-10T13:19:51.385Z,57.88
2022-10-10T13:22:17.657Z,57.14
2022-10-10T13:24:43.917Z,57.77
2022-10-10T13:27:10.169Z,57.93
2022-10-10T13:29:36.473Z,57.73
2022-10-10T13:32:02.841Z,57.42
2022-10-10T13:34:29.101Z,57.99
2022-10-10T13:36:55.723Z,58.22
2022-10-10T13:39:22.020Z,58.10
2022-10-10T13:41:48.316Z,58.30
2022-10-10T13:44:14.864Z,58.21
2022-10-10T13:46:41.138Z,58.28
2022-10-10T13:49:07.563Z,58.34
2022-10-10T13:51:33.938Z,59.18
2022-10-10T13:54:00.267Z,58.89
2022-10-10T13:56:26.590Z,59.31
2022-10-10T13:58:52.889Z,59.43
2022-10-10T14:01:19.183Z,59.09
2022-10-10T14:03:45.658Z,59.35
2022-10-10T14:06:11.918Z,58.99
2022-10-10T14:08:38.210Z,59.44
2022-10-10T14:11:05.044Z,59.41
2022-10-10T14:13:31.714Z,59.27
2022-10-10T14:15:57.968Z,59.19
2022-10-10T14:21:27.305Z,59.36
2022-10-10T14:23:53.627Z,58.62
2022-10-10T14:26:19.899Z,58.83
2022-10-10T14:28:46.242Z,59.40
2022-10-10T14:31:12.624Z,58.79
2022-10-10T14:33:38.873Z,58.97
2022-10-10T14:36:05.719Z,58.71
2022-10-10T14:38:31.991Z,58.44
2022-10-10T14:40:58.245Z,58.91
2022-10-10T14:43:24.708Z,58.81
2022-10-10T14:45:50.969Z,59.05
2022-10-10T14:48:17.226Z,58.85
2022-10-10T14:50:44.120Z,58.91
2022-10-10T14:53:10.384Z,59.22
2022-10-10T14:55:37.314Z,59.44
2022-10-10T14:58:03.575Z,59.59
2022-10-10T15:00:29.836Z,59.80
2022-10-10T15:02:56.150Z,59.75
2022-10-10T15:05:22.434Z,60.15
2022-10-10T15:07:53.337Z,60.45
2022-10-10T15:10:33.379Z,60.48
2022-10-10T15:13:00.242Z,60.91
2022-10-10T15:15:26.495Z,61.30
2022-10-10T15:17:52.783Z,61.22
2022-10-10T15:20:20.150Z,61.14
2022-10-10T15:22:46.532Z,61.16
2022-10-10T15:25:12.832Z,61.18
2022-10-10T15:27:39.131Z,60.91
2022-10-10T15:30:05.404Z,61.20
2022-10-10T15:32:31.679Z,61.13
2022-10-10T15:34:57.952Z,61.34
2022-10-10T15:37:24.215Z,61.50
2022-10-10T15:39:50.462Z,61.91
2022-10-10T15:42:22.342Z,62.16
2022-10-10T15:44:49.500Z,62.17
2022-10-10T15:47:15.778Z,62.39
2022-10-10T15:49:42.067Z,62.81
2022-10-10T15:52:08.321Z,62.70
2022-10-10T15:54:34.575Z,63.02
2022-10-10T15:57:00.888Z,63.61
2022-10-10T15:59:27.168Z,63.69
2022-10-10T16:01:55.548Z,63.79
2022-10-10T16:04:22.483Z,64.50
2022-10-10T16:06:54.552Z,64.57
2022-10-10T16:09:28.742Z,64.61
2022-10-10T16:11:55.348Z,64.80
2022-10-10T16:14:21.625Z,64.91
2022-10-10T16:16:47.877Z,65.42
2022-10-10T16:19:14.152Z,65.58
2022-10-10T16:21:40.402Z,65.47
2022-10-10T16:24:06.704Z,65.74
2022-10-10T16:26:34.491Z,65.88
2022-10-10T16:29:00.746Z,65.86
2022-10-10T16:31:27.038Z,65.87
2022-10-10T16:33:53.295Z,66.12
2022-10-10T16:36:19.580Z,66.00
2022-10-10T16:38:45.933Z,66.01
2022-10-10T16:41:28.813Z,66.55
2022-10-10T16:43:58.436Z,66.29
2022-10-10T16:46:27.239Z,66.37
2022-10-10T16:48:53.878Z,66.48
2022-10-10T16:51:20.168Z,66.93
2022-10-10T16:53:46.439Z,66.94
2022-10-10T16:56:12.718Z,66.96
2022-10-10T16:58:39.112Z,67.14
2022-10-10T17:01:06.375Z,67.47
2022-10-10T17:03:32.737Z,67.20
2022-10-10T17:05:58.994Z,67.87
2022-10-10T17:08:25.261Z,68.16
2022-10-10T17:10:51.590Z,68.48
2022-10-10T17:13:17.847Z,68.02
2022-10-10T17:15:44.118Z,68.29
2022-10-10T17:18:10.390Z,68.42
2022-10-10T17:20:36.695Z,69.02
2022-10-10T17:23:03.107Z,68.72
2022-10-10T17:25:31.134Z,68.66
2022-10-10T17:27:57.322Z,68.54
2022-10-10T17:30:23.613Z,69.00
2022-10-10T17:32:49.945Z,69.13
2022-10-10T17:35:16.261Z,69.29
2022-10-10T17:37:42.553Z,69.74
2022-10-10T17:40:08.840Z,70.18
2022-10-10T17:42:35.248Z,70.16
2022-10-10T17:45:01.530Z,69.94
2022-10-10T17:47:27.834Z,70.23
2022-10-10T17:49:54.376Z,70.80
2022-10-10T17:52:21.518Z,71.74
2022-10-10T17:54:47.921Z,71.56
2022-10-10T17:57:14.189Z,72.47
2022-10-10T17:59:40.447Z,72.82
2022-10-10T18:02:06.699Z,73.04
2022-10-10T18:04:32.963Z,73.14
2022-10-10T18:06:59.349Z,73.63
2022-10-10T18:09:25.695Z,74.04
2022-10-10T18:11:51.973Z,74.15
2022-10-10T18:14:18.243Z,74.21
2022-10-10T18:16:45.027Z,75.09
2022-10-10T18:19:11.343Z,76.36
2022-10-10T18:21:37.960Z,76.49
2022-10-10T18:24:07.096Z,76.25
2022-10-10T18:26:34.837Z,75.27
2022-10-10T18:29:01.091Z,75.52
2022-10-10T18:31:27.355Z,76.09
2022-10-10T18:33:53.645Z,75.54
2022-10-10T18:36:19.906Z,75.76
2022-10-10T18:38:46.159Z,77.09
2022-10-10T18:41:12.418Z,76.85
2022-10-10T18:43:39.738Z,77.89
2022-10-10T18:46:05.997Z,77.08
2022-10-10T18:48:32.356Z,77.28
2022-10-10T18:50:58.616Z,79.43
2022-10-10T18:53:24.876Z,78.09
2022-10-10T18:55:51.124Z,77.74
2022-10-10T18:58:20.053Z,78.15
2022-10-10T19:00:46.362Z,79.36
2022-10-10T19:03:13.574Z,77.89
2022-10-10T19:05:39.836Z,77.96
2022-10-10T19:08:06.082Z,77.78
2022-10-10T19:10:32.336Z,78.07
2022-10-10T19:12:58.591Z,78.84
2022-10-10T19:15:24.845Z,78.61
2022-10-10T19:17:51.160Z,78.94
2022-10-10T19:20:17.429Z,79.52
2022-10-10T19:22:43.688Z,80.36
2022-10-10T19:25:10.006Z,80.21
2022-10-10T19:27:36.263Z,79.90
2022-10-10T19:30:02.668Z,79.95
2022-10-10T19:32:29.005Z,79.77
2022-10-10T19:34:55.266Z,80.82
2022-10-10T19:37:21.570Z,80.27
2022-10-10T19:39:47.833Z,79.74
2022-10-10T19:42:14.096Z,79.78
2022-10-10T19:44:40.351Z,82.30
2022-10-10T19:47:06.616Z,82.09
2022-10-10T19:49:32.911Z,82.47
2022-10-10T19:51:59.167Z,82.53
2022-10-10T19:54:25.414Z,81.46
2022-10-10T19:56:51.841Z,81.49
2022-10-10T19:59:18.116Z,81.44
2022-10-10T20:01:44.619Z,82.89
2022-10-10T20:04:11.476Z,82.32
2022-10-10T20:06:37.795Z,81.51
2022-10-10T20:09:08.335Z,82.69
2022-10-10T20:11:36.026Z,81.41
2022-10-10T20:14:02.270Z,81.06
2022-10-10T20:16:28.554Z,80.89
2022-10-10T20:18:55.963Z,80.57
2022-10-10T20:21:22.826Z,80.28
2022-10-10T20:23:49.088Z,81.57
2022-10-10T20:26:15.361Z,83.49
2022-10-10T20:28:41.684Z,83.66
2022-10-10T20:31:08.011Z,82.93
2022-10-10T20:33:34.292Z,83.51
2022-10-10T20:36:00.535Z,82.49
2022-10-10T20:38:26.885Z,82.01
2022-10-10T20:40:53.144Z,82.03
2022-10-10T20:43:19.408Z,82.01
2022-10-10T20:45:45.668Z,81.64
2022-10-10T20:48:11.942Z,81.54
2022-10-10T20:50:38.214Z,81.91
2022-10-10T20:53:04.546Z,81.67
2022-10-10T20:55:30.824Z,81.79
2022-10-10T20:57:57.089Z,82.39
2022-10-10T21:00:23.340Z,82.35
2022-10-10T21:02:49.655Z,82.38
2022-10-10T21:05:15.925Z,82.70
2022-10-10T21:07:42.183Z,83.07
2022-10-10T21:10:08.438Z,86.04
2022-10-10T21:12:34.704Z,85.17
2022-10-10T21:15:02.392Z,83.69
2022-10-10T21:17:29.123Z,83.23
2022-10-10T21:19:55.430Z,83.88
2022-10-10T21:22:21.675Z,83.77
2022-10-10T21:24:47.965Z,87.76
2022-10-10T21:27:14.244Z,88.46
2022-10-10T21:29:40.500Z,88.25
2022-10-10T21:32:06.766Z,86.57
2022-10-10T21:34:33.014Z,86.69
2022-10-10T21:36:59.339Z,85.83
2022-10-10T21:39:26.447Z,85.37
2022-10-10T21:41:52.633Z,85.96
2022-10-10T21:44:18.888Z,85.37
2022-10-10T21:46:45.162Z,84.32
2022-10-10T21:49:11.427Z,84.50
2022-10-10T21:51:38.227Z,84.35
2022-10-10T21:54:04.504Z,86.14
2022-10-10T21:56:30.771Z,85.97
2022-10-10T21:59:00.990Z,86.41
2022-10-10T22:01:27.907Z,86.21
2022-10-10T22:03:54.311Z,86.04
2022-10-10T22:06:20.567Z,87.32
2022-10-10T22:08:46.841Z,86.80
2022-10-10T22:11:13.127Z,87.62
2022-10-10T22:13:39.405Z,88.54
2022-10-10T22:16:06.189Z,87.03
2022-10-10T22:18:32.814Z,86.56
2022-10-10T22:20:59.066Z,88.13
2022-10-10T22:23:25.379Z,88.34
2022-10-10T22:25:51.982Z,88.50
2022-10-10T22:28:18.244Z,88.95
2022-10-10T22:30:44.567Z,88.50
2022-10-10T22:33:10.833Z,87.62
2022-10-10T22:35:37.122Z,87.41
2022-10-10T22:38:03.394Z,87.39
2022-10-10T22:40:29.653Z,88.88
2022-10-10T22:42:55.938Z,88.19
2022-10-10T22:45:22.198Z,90.75
2022-10-10T22:47:48.458Z,89.29
2022-10-10T22:50:14.719Z,88.72
2022-10-10T22:52:40.981Z,89.86
2022-10-10T22:55:07.222Z,89.75
2022-10-10T22:57:33.494Z,89.37
2022-10-10T22:59:59.741Z,88.98
2022-10-10T23:02:26.045Z,88.00
2022-10-10T23:04:52.298Z,88.63
2022-10-10T23:07:20.159Z,88.38
2022-10-10T23:09:46.627Z,89.52
2022-10-10T23:12:12.875Z,92.21
2022-10-10T23:14:39.122Z,90.92
2022-10-10T23:17:05.378Z,90.48
2022-10-10T23:19:31.687Z,90.65
2022-10-10T23:21:57.943Z,89.73
2022-10-10T23:24:24.202Z,90.65
2022-10-10T23:26:50.442Z,89.65
2022-10-10T23:29:16.702Z,89.50
2022-10-10T23:31:42.957Z,89.10
2022-10-10T23:34:09.244Z,89.10
2022-10-10T23:36:35.524Z,88.28
2022-10-10T23:39:03.654Z,89.94
2022-10-10T23:41:32.766Z,88.97
2022-10-10T23:43:59.384Z,88.97
2022-10-10T23:46:25.652Z,88.60
2022-10-10T23:48:51.903Z,87.83
2022-10-10T23:51:18.159Z,88.59
2022-10-10T23:53:44.428Z,87.94
2022-10-10T23:56:10.723Z,87.51
2022-10-10T23:58:36.980Z,87.40
